Eden, Indiana
Current Conditions -  °F | °C
As of 8:15 PM on Saturday 22 Nov 2014 (Local Time) from KMQJ Reporting Station
Overcast Overcast  
Wind Chill: 52°   Ceiling: 4400
Heat Index: 52°   Visibility: 10mi
Dew Point: 32°   Wind: 10mph
Humidity: 47%   Direction: 180°S
Pressure: 30.02"   Gusts: NA
Location:  39.7974°N, 85.7653°W
Report Text: KMQJ 230115Z AUTO 18009KT 10SM OVC044 11/00 A3002 RMK AO1
Loading
Personal Weather Stations






























Interactive Weather Map New forecast layout! Learn more

10-Day Weather Forecast

Advertisements
Track Severe Weather on mobile